sensor_id;sensor_type;location;lat;lon;timestamp;temperature;humidity
26721;HTU21D;15950;51.112;6.966;2023-12-14T00:02:59;8.66;95.46
26721;HTU21D;15950;51.112;6.966;2023-12-14T00:05:59;8.73;95.29
26721;HTU21D;15950;51.112;6.966;2023-12-14T00:08:59;8.74;95.15
26721;HTU21D;15950;51.112;6.966;2023-12-14T00:11:59;8.61;95.39
26721;HTU21D;15950;51.112;6.966;2023-12-14T00:14:59;8.63;95.96
26721;HTU21D;15950;51.112;6.966;2023-12-14T00:17:59;8.71;95.51
26721;HTU21D;15950;51.112;6.966;2023-12-14T00:20:59;8.77;95.22
26721;HTU21D;15950;51.112;6.966;2023-12-14T00:23:59;8.69;94.98
26721;HTU21D;15950;51.112;6.966;2023-12-14T00:26:59;8.81;94.86
26721;HTU21D;15950;51.112;6.966;2023-12-14T00:29:59;8.66;95.01
26721;HTU21D;15950;51.112;6.966;2023-12-14T00:32:59;8.57;95.84
26721;HTU21D;15950;51.112;6.966;2023-12-14T00:35:59;8.83;94.88
26721;HTU21D;15950;51.112;6.966;2023-12-14T00:38:59;8.79;94.69
26721;HTU21D;15950;51.112;6.966;2023-12-14T00:41:59;8.96;94.20
26721;HTU21D;15950;51.112;6.966;2023-12-14T00:44:59;8.98;93.88
26721;HTU21D;15950;51.112;6.966;2023-12-14T00:47:59;8.95;93.96
26721;HTU21D;15950;51.112;6.966;2023-12-14T00:50:59;8.70;95.75
26721;HTU21D;15950;51.112;6.966;2023-12-14T00:53:59;8.79;95.51
26721;HTU21D;15950;51.112;6.966;2023-12-14T00:56:59;8.74;95.92
26721;HTU21D;15950;51.112;6.966;2023-12-14T00:59:59;8.67;96.17
26721;HTU21D;15950;51.112;6.966;2023-12-14T01:02:59;8.85;95.96
26721;HTU21D;15950;51.112;6.966;2023-12-14T01:05:59;8.88;96.23
26721;HTU21D;15950;51.112;6.966;2023-12-14T01:08:59;8.86;96.65
26721;HTU21D;15950;51.112;6.966;2023-12-14T01:11:59;8.88;97.02
26721;HTU21D;15950;51.112;6.966;2023-12-14T01:14:59;8.84;96.52
26721;HTU21D;15950;51.112;6.966;2023-12-14T01:17:59;8.56;96.94
26721;HTU21D;15950;51.112;6.966;2023-12-14T01:20:59;8.59;97.32
26721;HTU21D;15950;51.112;6.966;2023-12-14T01:23:59;8.69;96.92
26721;HTU21D;15950;51.112;6.966;2023-12-14T01:26:59;8.64;96.96
26721;HTU21D;15950;51.112;6.966;2023-12-14T01:29:59;8.45;97.32
26721;HTU21D;15950;51.112;6.966;2023-12-14T01:32:59;8.45;97.55
26721;HTU21D;15950;51.112;6.966;2023-12-14T01:35:59;8.68;96.72
26721;HTU21D;15950;51.112;6.966;2023-12-14T01:38:59;8.69;96.72
26721;HTU21D;15950;51.112;6.966;2023-12-14T01:41:59;8.77;96.16
26721;HTU21D;15950;51.112;6.966;2023-12-14T01:44:59;8.82;96.03
26721;HTU21D;15950;51.112;6.966;2023-12-14T01:47:59;8.69;96.39
26721;HTU21D;15950;51.112;6.966;2023-12-14T01:50:59;8.68;96.57
26721;HTU21D;15950;51.112;6.966;2023-12-14T01:53:59;8.48;97.25
26721;HTU21D;15950;51.112;6.966;2023-12-14T01:56:59;8.53;97.51
26721;HTU21D;15950;51.112;6.966;2023-12-14T01:59:59;8.46;97.93
26721;HTU21D;15950;51.112;6.966;2023-12-14T02:02:59;8.41;98.35
26721;HTU21D;15950;51.112;6.966;2023-12-14T02:05:59;8.30;98.86
26721;HTU21D;15950;51.112;6.966;2023-12-14T02:08:59;8.26;98.87
26721;HTU21D;15950;51.112;6.966;2023-12-14T02:11:59;8.30;98.72
26721;HTU21D;15950;51.112;6.966;2023-12-14T02:14:59;8.28;98.87
26721;HTU21D;15950;51.112;6.966;2023-12-14T02:17:59;8.25;98.88
26721;HTU21D;15950;51.112;6.966;2023-12-14T02:20:59;8.10;99.17
26721;HTU21D;15950;51.112;6.966;2023-12-14T02:23:59;8.19;99.24
26721;HTU21D;15950;51.112;6.966;2023-12-14T02:27:00;8.13;99.28
26721;HTU21D;15950;51.112;6.966;2023-12-14T02:29:59;8.17;99.34
26721;HTU21D;15950;51.112;6.966;2023-12-14T02:32:59;7.81;99.69
26721;HTU21D;15950;51.112;6.966;2023-12-14T02:35:59;7.90;99.48
26721;HTU21D;15950;51.112;6.966;2023-12-14T02:38:59;7.94;98.93
26721;HTU21D;15950;51.112;6.966;2023-12-14T02:41:59;7.85;99.17
26721;HTU21D;15950;51.112;6.966;2023-12-14T02:44:59;7.93;98.74
26721;HTU21D;15950;51.112;6.966;2023-12-14T02:47:59;7.74;98.68
26721;HTU21D;15950;51.112;6.966;2023-12-14T02:50:59;7.83;98.75
26721;HTU21D;15950;51.112;6.966;2023-12-14T02:53:59;7.85;98.80
26721;HTU21D;15950;51.112;6.966;2023-12-14T02:56:59;7.85;98.32
26721;HTU21D;15950;51.112;6.966;2023-12-14T02:59:59;7.73;98.06
26721;HTU21D;15950;51.112;6.966;2023-12-14T03:02:59;7.72;98.22
26721;HTU21D;15950;51.112;6.966;2023-12-14T03:05:59;7.69;98.21
26721;HTU21D;15950;51.112;6.966;2023-12-14T03:09:00;7.63;98.33
26721;HTU21D;15950;51.112;6.966;2023-12-14T03:12:00;7.63;98.33
26721;HTU21D;15950;51.112;6.966;2023-12-14T03:14:59;7.53;98.39
26721;HTU21D;15950;51.112;6.966;2023-12-14T03:17:59;7.47;98.42
26721;HTU21D;15950;51.112;6.966;2023-12-14T03:20:59;7.44;98.46
26721;HTU21D;15950;51.112;6.966;2023-12-14T03:23:59;7.46;98.43
26721;HTU21D;15950;51.112;6.966;2023-12-14T03:26:59;7.47;98.29
26721;HTU21D;15950;51.112;6.966;2023-12-14T03:29:59;7.29;98.10
26721;HTU21D;15950;51.112;6.966;2023-12-14T03:32:59;7.25;97.99
26721;HTU21D;15950;51.112;6.966;2023-12-14T03:35:59;7.36;97.70
26721;HTU21D;15950;51.112;6.966;2023-12-14T03:38:59;7.26;97.61
26721;HTU21D;15950;51.112;6.966;2023-12-14T03:41:59;7.44;97.25
26721;HTU21D;15950;51.112;6.966;2023-12-14T03:44:59;7.54;96.85
26721;HTU21D;15950;51.112;6.966;2023-12-14T03:47:59;7.57;96.39
26721;HTU21D;15950;51.112;6.966;2023-12-14T03:51:03;7.61;96.30
26721;HTU21D;15950;51.112;6.966;2023-12-14T03:53:59;7.50;96.51
26721;HTU21D;15950;51.112;6.966;2023-12-14T03:56:59;7.71;95.93
26721;HTU21D;15950;51.112;6.966;2023-12-14T03:59:59;7.47;96.76
26721;HTU21D;15950;51.112;6.966;2023-12-14T04:02:59;7.38;97.10
26721;HTU21D;15950;51.112;6.966;2023-12-14T04:05:59;7.30;97.19
26721;HTU21D;15950;51.112;6.966;2023-12-14T04:08:59;7.19;97.36
26721;HTU21D;15950;51.112;6.966;2023-12-14T04:11:59;7.17;97.49
26721;HTU21D;15950;51.112;6.966;2023-12-14T04:14:59;6.95;98.00
26721;HTU21D;15950;51.112;6.966;2023-12-14T04:17:59;7.30;97.65
26721;HTU21D;15950;51.112;6.966;2023-12-14T04:20:59;6.96;98.06
26721;HTU21D;15950;51.112;6.966;2023-12-14T04:23:59;7.17;98.05
26721;HTU21D;15950;51.112;6.966;2023-12-14T04:26:59;7.21;97.78
26721;HTU21D;15950;51.112;6.966;2023-12-14T04:29:59;7.15;98.04
26721;HTU21D;15950;51.112;6.966;2023-12-14T04:32:59;7.10;98.32
26721;HTU21D;15950;51.112;6.966;2023-12-14T04:35:59;6.94;98.64
26721;HTU21D;15950;51.112;6.966;2023-12-14T04:38:59;6.97;98.82
26721;HTU21D;15950;51.112;6.966;2023-12-14T04:41:59;6.90;98.71
26721;HTU21D;15950;51.112;6.966;2023-12-14T04:44:59;6.93;98.41
26721;HTU21D;15950;51.112;6.966;2023-12-14T04:47:59;6.89;98.57
26721;HTU21D;15950;51.112;6.966;2023-12-14T04:50:59;6.95;98.58
26721;HTU21D;15950;51.112;6.966;2023-12-14T04:53:59;6.80;98.86
26721;HTU21D;15950;51.112;6.966;2023-12-14T04:56:59;6.97;98.74
26721;HTU21D;15950;51.112;6.966;2023-12-14T04:59:59;6.92;98.33
26721;HTU21D;15950;51.112;6.966;2023-12-14T05:02:59;6.87;98.75
26721;HTU21D;15950;51.112;6.966;2023-12-14T05:05:59;6.77;98.83
26721;HTU21D;15950;51.112;6.966;2023-12-14T05:08:59;6.86;98.61
26721;HTU21D;15950;51.112;6.966;2023-12-14T05:11:59;6.93;98.51
26721;HTU21D;15950;51.112;6.966;2023-12-14T05:14:59;7.06;97.68
26721;HTU21D;15950;51.112;6.966;2023-12-14T05:17:59;6.99;97.71
26721;HTU21D;15950;51.112;6.966;2023-12-14T05:20:59;6.76;98.06
26721;HTU21D;15950;51.112;6.966;2023-12-14T05:23:59;6.86;98.22
26721;HTU21D;15950;51.112;6.966;2023-12-14T05:26:59;6.97;97.74
26721;HTU21D;15950;51.112;6.966;2023-12-14T05:29:59;6.55;98.53
26721;HTU21D;15950;51.112;6.966;2023-12-14T05:32:59;6.68;99.01
26721;HTU21D;15950;51.112;6.966;2023-12-14T05:35:59;6.76;98.40
26721;HTU21D;15950;51.112;6.966;2023-12-14T05:38:59;6.85;98.13
26721;HTU21D;15950;51.112;6.966;2023-12-14T05:41:59;6.86;97.70
26721;HTU21D;15950;51.112;6.966;2023-12-14T05:44:59;6.78;97.94
26721;HTU21D;15950;51.112;6.966;2023-12-14T05:47:59;6.73;97.82
26721;HTU21D;15950;51.112;6.966;2023-12-14T05:51:00;6.71;97.66
26721;HTU21D;15950;51.112;6.966;2023-12-14T05:53:59;6.83;97.43
26721;HTU21D;15950;51.112;6.966;2023-12-14T05:56:59;6.75;97.28
26721;HTU21D;15950;51.112;6.966;2023-12-14T05:59:59;6.81;97.14
26721;HTU21D;15950;51.112;6.966;2023-12-14T06:02:59;6.83;97.03
26721;HTU21D;15950;51.112;6.966;2023-12-14T06:05:59;6.72;96.56
26721;HTU21D;15950;51.112;6.966;2023-12-14T06:08:59;6.85;96.36
26721;HTU21D;15950;51.112;6.966;2023-12-14T06:12:02;6.73;96.68
26721;HTU21D;15950;51.112;6.966;2023-12-14T06:14:59;6.64;96.60
26721;HTU21D;15950;51.112;6.966;2023-12-14T06:17:59;6.59;96.48
26721;HTU21D;15950;51.112;6.966;2023-12-14T06:20:59;6.85;96.25
26721;HTU21D;15950;51.112;6.966;2023-12-14T06:23:59;6.76;96.23
26721;HTU21D;15950;51.112;6.966;2023-12-14T06:26:59;6.73;96.17
26721;HTU21D;15950;51.112;6.966;2023-12-14T06:29:59;6.59;96.39
26721;HTU21D;15950;51.112;6.966;2023-12-14T06:32:59;6.80;96.33
26721;HTU21D;15950;51.112;6.966;2023-12-14T06:36:03;6.65;96.38
26721;HTU21D;15950;51.112;6.966;2023-12-14T06:39:00;6.59;96.96
26721;HTU21D;15950;51.112;6.966;2023-12-14T06:41:59;6.62;96.94
26721;HTU21D;15950;51.112;6.966;2023-12-14T06:45:01;6.64;96.97
26721;HTU21D;15950;51.112;6.966;2023-12-14T06:47:59;6.48;96.78
26721;HTU21D;15950;51.112;6.966;2023-12-14T06:50:59;6.54;97.34
26721;HTU21D;15950;51.112;6.966;2023-12-14T06:53:59;6.65;97.07
26721;HTU21D;15950;51.112;6.966;2023-12-14T06:56:59;6.72;96.79
26721;HTU21D;15950;51.112;6.966;2023-12-14T06:59:59;6.55;96.71
26721;HTU21D;15950;51.112;6.966;2023-12-14T07:02:59;6.66;96.92
26721;HTU21D;15950;51.112;6.966;2023-12-14T07:05:59;6.61;97.13
26721;HTU21D;15950;51.112;6.966;2023-12-14T07:08:59;6.70;97.32
26721;HTU21D;15950;51.112;6.966;2023-12-14T07:11:59;6.89;97.13
26721;HTU21D;15950;51.112;6.966;2023-12-14T07:14:59;6.89;96.85
26721;HTU21D;15950;51.112;6.966;2023-12-14T07:17:59;6.92;96.60
26721;HTU21D;15950;51.112;6.966;2023-12-14T07:20:59;6.63;97.50
26721;HTU21D;15950;51.112;6.966;2023-12-14T07:23:59;6.52;97.84
26721;HTU21D;15950;51.112;6.966;2023-12-14T07:26:59;6.52;97.88
26721;HTU21D;15950;51.112;6.966;2023-12-14T07:29:59;6.59;97.82
26721;HTU21D;15950;51.112;6.966;2023-12-14T07:32:59;6.63;97.73
26721;HTU21D;15950;51.112;6.966;2023-12-14T07:35:59;6.62;97.84
26721;HTU21D;15950;51.112;6.966;2023-12-14T07:38:59;6.29;98.24
26721;HTU21D;15950;51.112;6.966;2023-12-14T07:42:00;6.33;99.12
26721;HTU21D;15950;51.112;6.966;2023-12-14T07:44:59;6.45;98.69
26721;HTU21D;15950;51.112;6.966;2023-12-14T07:47:59;6.24;99.16
26721;HTU21D;15950;51.112;6.966;2023-12-14T07:50:59;6.45;98.97
26721;HTU21D;15950;51.112;6.966;2023-12-14T07:53:59;6.49;98.13
26721;HTU21D;15950;51.112;6.966;2023-12-14T07:56:59;6.28;98.32
26721;HTU21D;15950;51.112;6.966;2023-12-14T07:59:59;6.25;98.36
26721;HTU21D;15950;51.112;6.966;2023-12-14T08:02:59;6.37;98.19
26721;HTU21D;15950;51.112;6.966;2023-12-14T08:05:59;6.24;97.98
26721;HTU21D;15950;51.112;6.966;2023-12-14T08:08:59;6.25;97.92
26721;HTU21D;15950;51.112;6.966;2023-12-14T08:11:59;6.32;97.40
26721;HTU21D;15950;51.112;6.966;2023-12-14T08:14:59;6.12;97.79
26721;HTU21D;15950;51.112;6.966;2023-12-14T08:17:59;6.25;97.95
26721;HTU21D;15950;51.112;6.966;2023-12-14T08:20:59;6.39;97.46
26721;HTU21D;15950;51.112;6.966;2023-12-14T08:23:59;6.47;96.83
26721;HTU21D;15950;51.112;6.966;2023-12-14T08:26:59;6.35;96.52
26721;HTU21D;15950;51.112;6.966;2023-12-14T08:29:59;6.28;96.78
26721;HTU21D;15950;51.112;6.966;2023-12-14T08:32:59;6.21;97.77
26721;HTU21D;15950;51.112;6.966;2023-12-14T08:35:59;6.24;97.94
26721;HTU21D;15950;51.112;6.966;2023-12-14T08:38:59;6.22;97.52
26721;HTU21D;15950;51.112;6.966;2023-12-14T08:41:59;6.13;97.70
26721;HTU21D;15950;51.112;6.966;2023-12-14T08:44:59;6.13;97.77
26721;HTU21D;15950;51.112;6.966;2023-12-14T08:47:59;6.19;97.35
26721;HTU21D;15950;51.112;6.966;2023-12-14T08:50:59;6.36;97.23
26721;HTU21D;15950;51.112;6.966;2023-12-14T08:53:59;6.22;97.67
26721;HTU21D;15950;51.112;6.966;2023-12-14T08:56:59;6.26;97.58
26721;HTU21D;15950;51.112;6.966;2023-12-14T08:59:59;6.17;97.71
26721;HTU21D;15950;51.112;6.966;2023-12-14T09:02:59;6.18;97.45
26721;HTU21D;15950;51.112;6.966;2023-12-14T09:05:59;6.22;97.55
26721;HTU21D;15950;51.112;6.966;2023-12-14T09:08:59;6.14;97.58
26721;HTU21D;15950;51.112;6.966;2023-12-14T09:11:59;6.01;98.04
26721;HTU21D;15950;51.112;6.966;2023-12-14T09:14:59;6.14;97.61
26721;HTU21D;15950;51.112;6.966;2023-12-14T09:17:59;6.18;97.42
26721;HTU21D;15950;51.112;6.966;2023-12-14T09:20:59;6.22;97.63
26721;HTU21D;15950;51.112;6.966;2023-12-14T09:23:59;5.96;97.90
26721;HTU21D;15950;51.112;6.966;2023-12-14T09:26:59;6.01;97.58
26721;HTU21D;15950;51.112;6.966;2023-12-14T09:29:59;6.16;97.45
26721;HTU21D;15950;51.112;6.966;2023-12-14T09:32:59;6.19;97.54
26721;HTU21D;15950;51.112;6.966;2023-12-14T09:35:59;5.95;97.48
26721;HTU21D;15950;51.112;6.966;2023-12-14T09:38:59;5.82;97.84
26721;HTU21D;15950;51.112;6.966;2023-12-14T09:42:06;5.94;97.78
26721;HTU21D;15950;51.112;6.966;2023-12-14T09:44:59;6.16;97.27
26721;HTU21D;15950;51.112;6.966;2023-12-14T09:48:00;6.02;96.93
26721;HTU21D;15950;51.112;6.966;2023-12-14T09:50:59;6.16;96.88
26721;HTU21D;15950;51.112;6.966;2023-12-14T09:53:59;6.05;97.10
26721;HTU21D;15950;51.112;6.966;2023-12-14T09:56:59;6.06;97.17
26721;HTU21D;15950;51.112;6.966;2023-12-14T09:59:59;6.12;97.07
26721;HTU21D;15950;51.112;6.966;2023-12-14T10:05:59;5.90;97.08
26721;HTU21D;15950;51.112;6.966;2023-12-14T10:08:59;5.90;96.96
26721;HTU21D;15950;51.112;6.966;2023-12-14T10:12:07;5.98;96.78
26721;HTU21D;15950;51.112;6.966;2023-12-14T10:15:02;6.03;96.52
26721;HTU21D;15950;51.112;6.966;2023-12-14T10:17:59;6.17;96.23
26721;HTU21D;15950;51.112;6.966;2023-12-14T10:20:59;6.07;95.81
26721;HTU21D;15950;51.112;6.966;2023-12-14T10:23:59;6.11;95.84
26721;HTU21D;15950;51.112;6.966;2023-12-14T10:26:59;6.15;95.61
26721;HTU21D;15950;51.112;6.966;2023-12-14T10:30:04;6.01;95.71
26721;HTU21D;15950;51.112;6.966;2023-12-14T10:32:59;6.09;95.77
26721;HTU21D;15950;51.112;6.966;2023-12-14T10:36:00;6.10;95.61
26721;HTU21D;15950;51.112;6.966;2023-12-14T10:39:00;6.04;96.05
26721;HTU21D;15950;51.112;6.966;2023-12-14T10:42:02;5.98;96.13
26721;HTU21D;15950;51.112;6.966;2023-12-14T10:45:01;5.90;95.91
26721;HTU21D;15950;51.112;6.966;2023-12-14T10:48:00;6.08;95.51
26721;HTU21D;15950;51.112;6.966;2023-12-14T10:51:01;5.84;95.24
26721;HTU21D;15950;51.112;6.966;2023-12-14T10:53:59;6.13;94.82
26721;HTU21D;15950;51.112;6.966;2023-12-14T10:56:59;6.01;94.60
26721;HTU21D;15950;51.112;6.966;2023-12-14T11:00:00;6.05;94.74
26721;HTU21D;15950;51.112;6.966;2023-12-14T11:02:59;6.07;94.72
26721;HTU21D;15950;51.112;6.966;2023-12-14T11:06:00;6.19;94.49
26721;HTU21D;15950;51.112;6.966;2023-12-14T11:09:01;5.95;94.20
26721;HTU21D;15950;51.112;6.966;2023-12-14T11:11:59;5.94;94.11
26721;HTU21D;15950;51.112;6.966;2023-12-14T11:14:59;6.07;93.88
26721;HTU21D;15950;51.112;6.966;2023-12-14T11:21:00;6.03;94.61
26721;HTU21D;15950;51.112;6.966;2023-12-14T11:24:01;6.07;94.81
26721;HTU21D;15950;51.112;6.966;2023-12-14T11:26:59;6.15;94.78
26721;HTU21D;15950;51.112;6.966;2023-12-14T11:29:59;5.93;95.05
26721;HTU21D;15950;51.112;6.966;2023-12-14T11:32:59;6.05;95.45
26721;HTU21D;15950;51.112;6.966;2023-12-14T11:35:59;6.24;95.36
26721;HTU21D;15950;51.112;6.966;2023-12-14T11:38:59;6.08;95.20
26721;HTU21D;15950;51.112;6.966;2023-12-14T11:42:03;6.03;95.05
26721;HTU21D;15950;51.112;6.966;2023-12-14T11:44:59;5.98;94.94
26721;HTU21D;15950;51.112;6.966;2023-12-14T11:47:59;6.07;94.62
26721;HTU21D;15950;51.112;6.966;2023-12-14T11:50:59;6.02;94.98
26721;HTU21D;15950;51.112;6.966;2023-12-14T11:54:00;6.06;94.52
26721;HTU21D;15950;51.112;6.966;2023-12-14T11:57:01;5.76;94.57
26721;HTU21D;15950;51.112;6.966;2023-12-14T11:59:59;6.00;94.72
26721;HTU21D;15950;51.112;6.966;2023-12-14T12:03:10;5.79;94.65
26721;HTU21D;15950;51.112;6.966;2023-12-14T12:05:59;5.93;94.68
26721;HTU21D;15950;51.112;6.966;2023-12-14T12:08:59;5.99;94.69
26721;HTU21D;15950;51.112;6.966;2023-12-14T12:11:59;6.12;94.69
26721;HTU21D;15950;51.112;6.966;2023-12-14T12:14:59;6.17;94.32
26721;HTU21D;15950;51.112;6.966;2023-12-14T12:17:59;6.10;94.78
26721;HTU21D;15950;51.112;6.966;2023-12-14T12:20:59;6.20;94.24
26721;HTU21D;15950;51.112;6.966;2023-12-14T12:23:59;6.15;93.92
26721;HTU21D;15950;51.112;6.966;2023-12-14T12:26:59;6.27;93.66
26721;HTU21D;15950;51.112;6.966;2023-12-14T12:29:59;6.44;93.72
26721;HTU21D;15950;51.112;6.966;2023-12-14T12:32:59;6.41;93.20
26721;HTU21D;15950;51.112;6.966;2023-12-14T12:35:59;6.52;92.77
26721;HTU21D;15950;51.112;6.966;2023-12-14T12:38:59;6.81;92.46
26721;HTU21D;15950;51.112;6.966;2023-12-14T12:41:59;6.61;92.13
26721;HTU21D;15950;51.112;6.966;2023-12-14T12:44:59;6.31;92.24
26721;HTU21D;15950;51.112;6.966;2023-12-14T12:47:59;6.23;93.19
26721;HTU21D;15950;51.112;6.966;2023-12-14T12:50:59;6.51;93.04
26721;HTU21D;15950;51.112;6.966;2023-12-14T12:53:59;6.63;92.58
26721;HTU21D;15950;51.112;6.966;2023-12-14T12:56:59;6.73;92.26
26721;HTU21D;15950;51.112;6.966;2023-12-14T12:59:59;6.62;92.24
26721;HTU21D;15950;51.112;6.966;2023-12-14T13:02:59;6.22;92.79
26721;HTU21D;15950;51.112;6.966;2023-12-14T13:05:59;6.10;93.24
26721;HTU21D;15950;51.112;6.966;2023-12-14T13:08:59;6.06;93.27
26721;HTU21D;15950;51.112;6.966;2023-12-14T13:11:59;6.09;92.95
26721;HTU21D;15950;51.112;6.966;2023-12-14T13:14:59;6.19;92.95
26721;HTU21D;15950;51.112;6.966;2023-12-14T13:17:59;6.07;92.80
26721;HTU21D;15950;51.112;6.966;2023-12-14T13:20:59;6.20;93.16
26721;HTU21D;15950;51.112;6.966;2023-12-14T13:23:59;6.10;92.78
26721;HTU21D;15950;51.112;6.966;2023-12-14T13:26:59;5.94;92.08
26721;HTU21D;15950;51.112;6.966;2023-12-14T13:29:59;5.97;91.69
26721;HTU21D;15950;51.112;6.966;2023-12-14T13:32:59;6.02;91.84
26721;HTU21D;15950;51.112;6.966;2023-12-14T13:35:59;5.93;91.88
26721;HTU21D;15950;51.112;6.966;2023-12-14T13:38:59;6.02;92.12
26721;HTU21D;15950;51.112;6.966;2023-12-14T13:41:59;6.02;91.92
26721;HTU21D;15950;51.112;6.966;2023-12-14T13:44:59;6.17;91.52
26721;HTU21D;15950;51.112;6.966;2023-12-14T13:47:59;6.39;91.05
26721;HTU21D;15950;51.112;6.966;2023-12-14T13:50:58;5.90;91.06
26721;HTU21D;15950;51.112;6.966;2023-12-14T13:53:59;5.97;91.25
26721;HTU21D;15950;51.112;6.966;2023-12-14T13:56:59;5.97;91.44
26721;HTU21D;15950;51.112;6.966;2023-12-14T13:59:59;5.97;91.32
26721;HTU21D;15950;51.112;6.966;2023-12-14T14:02:59;5.86;91.00
26721;HTU21D;15950;51.112;6.966;2023-12-14T14:05:58;6.13;90.86
26721;HTU21D;15950;51.112;6.966;2023-12-14T14:08:59;5.99;90.72
26721;HTU21D;15950;51.112;6.966;2023-12-14T14:11:58;6.00;90.71
26721;HTU21D;15950;51.112;6.966;2023-12-14T14:14:58;5.94;91.44
26721;HTU21D;15950;51.112;6.966;2023-12-14T14:17:58;5.62;91.90
26721;HTU21D;15950;51.112;6.966;2023-12-14T14:20:58;5.56;92.96
26721;HTU21D;15950;51.112;6.966;2023-12-14T14:23:58;5.44;93.01
26721;HTU21D;15950;51.112;6.966;2023-12-14T14:26:58;5.67;93.49
26721;HTU21D;15950;51.112;6.966;2023-12-14T14:29:59;5.62;93.91
26721;HTU21D;15950;51.112;6.966;2023-12-14T14:32:58;5.60;93.92
26721;HTU21D;15950;51.112;6.966;2023-12-14T14:35:58;5.34;94.59
26721;HTU21D;15950;51.112;6.966;2023-12-14T14:38:58;5.37;95.04
26721;HTU21D;15950;51.112;6.966;2023-12-14T14:41:58;5.29;95.70
26721;HTU21D;15950;51.112;6.966;2023-12-14T14:44:58;5.44;95.80
26721;HTU21D;15950;51.112;6.966;2023-12-14T14:47:58;5.25;95.57
26721;HTU21D;15950;51.112;6.966;2023-12-14T14:50:58;5.28;95.62
26721;HTU21D;15950;51.112;6.966;2023-12-14T14:53:58;5.47;95.39
26721;HTU21D;15950;51.112;6.966;2023-12-14T14:56:59;5.48;94.96
26721;HTU21D;15950;51.112;6.966;2023-12-14T14:59:59;5.54;94.82
26721;HTU21D;15950;51.112;6.966;2023-12-14T15:02:58;5.69;94.05
26721;HTU21D;15950;51.112;6.966;2023-12-14T15:05:58;5.91;93.32
26721;HTU21D;15950;51.112;6.966;2023-12-14T15:08:59;5.88;93.05
26721;HTU21D;15950;51.112;6.966;2023-12-14T15:11:58;5.91;92.94
26721;HTU21D;15950;51.112;6.966;2023-12-14T15:14:58;5.86;92.92
26721;HTU21D;15950;51.112;6.966;2023-12-14T15:17:58;6.03;92.53
26721;HTU21D;15950;51.112;6.966;2023-12-14T15:20:58;6.14;92.18
26721;HTU21D;15950;51.112;6.966;2023-12-14T15:23:58;5.90;92.04
26721;HTU21D;15950;51.112;6.966;2023-12-14T15:26:58;5.88;91.75
26721;HTU21D;15950;51.112;6.966;2023-12-14T15:29:59;6.09;91.13
26721;HTU21D;15950;51.112;6.966;2023-12-14T15:32:58;5.99;90.67
26721;HTU21D;15950;51.112;6.966;2023-12-14T15:35:59;6.02;90.94
26721;HTU21D;15950;51.112;6.966;2023-12-14T15:38:59;5.68;91.43
26721;HTU21D;15950;51.112;6.966;2023-12-14T15:41:58;6.02;91.24
26721;HTU21D;15950;51.112;6.966;2023-12-14T15:44:58;5.86;91.15
26721;HTU21D;15950;51.112;6.966;2023-12-14T15:48:02;5.93;91.20
26721;HTU21D;15950;51.112;6.966;2023-12-14T15:50:59;5.99;90.86
26721;HTU21D;15950;51.112;6.966;2023-12-14T15:53:58;5.87;90.79
26721;HTU21D;15950;51.112;6.966;2023-12-14T15:56:58;5.98;90.71
26721;HTU21D;15950;51.112;6.966;2023-12-14T15:59:58;5.91;90.50
26721;HTU21D;15950;51.112;6.966;2023-12-14T16:02:59;5.71;90.73
26721;HTU21D;15950;51.112;6.966;2023-12-14T16:05:58;5.54;90.78
26721;HTU21D;15950;51.112;6.966;2023-12-14T16:08:58;5.76;91.06
26721;HTU21D;15950;51.112;6.966;2023-12-14T16:11:58;5.74;90.57
26721;HTU21D;15950;51.112;6.966;2023-12-14T16:14:58;5.95;90.07
26721;HTU21D;15950;51.112;6.966;2023-12-14T16:17:58;5.74;90.53
26721;HTU21D;15950;51.112;6.966;2023-12-14T16:20:58;5.78;90.24
26721;HTU21D;15950;51.112;6.966;2023-12-14T16:23:58;5.76;90.63
26721;HTU21D;15950;51.112;6.966;2023-12-14T16:26:58;6.11;90.17
26721;HTU21D;15950;51.112;6.966;2023-12-14T16:29:58;6.09;89.24
26721;HTU21D;15950;51.112;6.966;2023-12-14T16:32:58;6.38;88.86
26721;HTU21D;15950;51.112;6.966;2023-12-14T16:35:58;6.53;88.35
26721;HTU21D;15950;51.112;6.966;2023-12-14T16:38:58;6.46;87.54
26721;HTU21D;15950;51.112;6.966;2023-12-14T16:41:58;6.51;87.19
26721;HTU21D;15950;51.112;6.966;2023-12-14T16:44:58;6.65;87.21
26721;HTU21D;15950;51.112;6.966;2023-12-14T16:47:58;6.66;86.50
26721;HTU21D;15950;51.112;6.966;2023-12-14T16:50:58;6.69;86.37
26721;HTU21D;15950;51.112;6.966;2023-12-14T16:53:58;6.68;86.17
26721;HTU21D;15950;51.112;6.966;2023-12-14T16:56:58;6.79;85.88
26721;HTU21D;15950;51.112;6.966;2023-12-14T16:59:58;6.72;85.45
26721;HTU21D;15950;51.112;6.966;2023-12-14T17:02:58;6.85;85.57
26721;HTU21D;15950;51.112;6.966;2023-12-14T17:05:58;6.61;85.89
26721;HTU21D;15950;51.112;6.966;2023-12-14T17:08:58;6.52;85.72
26721;HTU21D;15950;51.112;6.966;2023-12-14T17:11:58;6.64;85.61
26721;HTU21D;15950;51.112;6.966;2023-12-14T17:14:58;6.79;85.61
26721;HTU21D;15950;51.112;6.966;2023-12-14T17:17:59;6.57;85.02
26721;HTU21D;15950;51.112;6.966;2023-12-14T17:20:58;6.70;85.18
26721;HTU21D;15950;51.112;6.966;2023-12-14T17:23:58;6.68;84.72
26721;HTU21D;15950;51.112;6.966;2023-12-14T17:26:58;6.68;85.03
26721;HTU21D;15950;51.112;6.966;2023-12-14T17:29:58;6.71;84.94
26721;HTU21D;15950;51.112;6.966;2023-12-14T17:32:58;6.93;84.71
26721;HTU21D;15950;51.112;6.966;2023-12-14T17:35:58;6.64;84.55
26721;HTU21D;15950;51.112;6.966;2023-12-14T17:38:58;6.73;84.56
26721;HTU21D;15950;51.112;6.966;2023-12-14T17:41:58;6.59;84.94
26721;HTU21D;15950;51.112;6.966;2023-12-14T17:44:58;6.50;84.78
26721;HTU21D;15950;51.112;6.966;2023-12-14T17:47:58;6.74;84.82
26721;HTU21D;15950;51.112;6.966;2023-12-14T17:51:00;6.78;84.51
26721;HTU21D;15950;51.112;6.966;2023-12-14T17:53:58;6.91;84.10
26721;HTU21D;15950;51.112;6.966;2023-12-14T17:56:58;6.85;84.04
26721;HTU21D;15950;51.112;6.966;2023-12-14T17:59:58;6.85;83.96
26721;HTU21D;15950;51.112;6.966;2023-12-14T18:02:58;6.90;84.18
26721;HTU21D;15950;51.112;6.966;2023-12-14T18:05:58;6.86;83.94
26721;HTU21D;15950;51.112;6.966;2023-12-14T18:08:58;6.90;84.45
26721;HTU21D;15950;51.112;6.966;2023-12-14T18:11:58;6.89;84.45
26721;HTU21D;15950;51.112;6.966;2023-12-14T18:14:58;6.83;84.24
26721;HTU21D;15950;51.112;6.966;2023-12-14T18:17:58;6.82;84.27
26721;HTU21D;15950;51.112;6.966;2023-12-14T18:20:59;6.82;84.45
26721;HTU21D;15950;51.112;6.966;2023-12-14T18:23:58;6.92;84.21
26721;HTU21D;15950;51.112;6.966;2023-12-14T18:26:58;6.76;83.91
26721;HTU21D;15950;51.112;6.966;2023-12-14T18:29:58;6.84;84.15
26721;HTU21D;15950;51.112;6.966;2023-12-14T18:32:58;7.00;83.54
26721;HTU21D;15950;51.112;6.966;2023-12-14T18:35:58;6.96;83.55
26721;HTU21D;15950;51.112;6.966;2023-12-14T18:38:58;7.06;83.26
26721;HTU21D;15950;51.112;6.966;2023-12-14T18:41:58;7.09;82.80
26721;HTU21D;15950;51.112;6.966;2023-12-14T18:44:58;7.07;82.73
26721;HTU21D;15950;51.112;6.966;2023-12-14T18:47:58;7.09;82.72
26721;HTU21D;15950;51.112;6.966;2023-12-14T18:50:59;7.14;82.59
26721;HTU21D;15950;51.112;6.966;2023-12-14T18:53:58;7.16;82.65
26721;HTU21D;15950;51.112;6.966;2023-12-14T18:56:58;7.19;82.62
26721;HTU21D;15950;51.112;6.966;2023-12-14T18:59:58;7.18;82.52
26721;HTU21D;15950;51.112;6.966;2023-12-14T19:02:58;7.21;82.63